createdAt,value
2019-04-27T00:01:15.185Z,11.00
2019-04-27T00:03:58.513Z,11.00
2019-04-27T00:06:28.230Z,10.90
2019-04-27T00:09:03.442Z,11.00
2019-04-27T00:11:45.264Z,11.20
2019-04-27T00:14:14.945Z,11.10
2019-04-27T00:17:00.606Z,11.10
2019-04-27T00:19:43.896Z,11.10
2019-04-27T00:22:34.225Z,11.00
2019-04-27T00:25:03.890Z,11.10
2019-04-27T00:27:33.603Z,11.20
2019-04-27T00:30:03.987Z,11.10
2019-04-27T00:32:33.395Z,11.00
2019-04-27T00:35:03.688Z,11.00
2019-04-27T00:37:45.531Z,10.90
2019-04-27T00:40:18.194Z,10.90
2019-04-27T00:42:47.528Z,10.80
2019-04-27T00:45:17.093Z,10.60
2019-04-27T00:47:56.851Z,10.70
2019-04-27T00:50:17.926Z,10.70
2019-04-27T00:52:47.436Z,10.70
2019-04-27T00:55:16.725Z,10.70
2019-04-27T00:58:10.913Z,10.70
2019-04-27T01:00:55.077Z,10.70
2019-04-27T01:03:33.252Z,10.70
2019-04-27T01:06:03.237Z,10.50
2019-04-27T01:08:34.247Z,10.10
2019-04-27T01:11:03.732Z,10.10
2019-04-27T01:13:34.709Z,10.00
2019-04-27T01:16:05.571Z,10.00
2019-04-27T01:18:35.150Z,10.10
2019-04-27T01:21:04.941Z,10.10
2019-04-27T01:23:34.360Z,9.90
2019-04-27T01:26:14.805Z,9.70
2019-04-27T01:28:49.559Z,9.80
2019-04-27T01:31:19.407Z,9.80
2019-04-27T01:33:48.954Z,10.10
2019-04-27T01:36:19.023Z,10.20
2019-04-27T01:38:49.652Z,10.40
2019-04-27T01:41:19.309Z,10.30
2019-04-27T01:43:49.155Z,10.20
2019-04-27T01:46:19.556Z,10.10
2019-04-27T01:48:49.670Z,9.80
2019-04-27T01:51:21.010Z,9.80
2019-04-27T01:53:50.499Z,9.80
2019-04-27T01:56:20.232Z,9.80
2019-04-27T01:58:50.331Z,9.70
2019-04-27T02:01:48.942Z,9.60
2019-04-27T02:04:52.935Z,9.80
2019-04-27T02:07:22.301Z,9.80
2019-04-27T02:09:51.715Z,9.70
2019-04-27T02:12:21.203Z,9.80
2019-04-27T02:14:50.606Z,9.80
2019-04-27T02:17:19.712Z,9.80
2019-04-27T02:19:49.420Z,9.70
2019-04-27T02:22:19.056Z,9.70
2019-04-27T02:24:49.276Z,9.60
2019-04-27T02:27:21.120Z,9.40
2019-04-27T02:30:21.775Z,9.50
2019-04-27T02:33:13.620Z,9.50
2019-04-27T02:35:42.801Z,9.80
2019-04-27T02:38:12.167Z,9.60
2019-04-27T02:40:53.058Z,9.50
2019-04-27T02:43:26.507Z,9.50
2019-04-27T02:45:55.908Z,9.60
2019-04-27T02:48:25.146Z,9.50
2019-04-27T02:50:59.770Z,9.50
2019-04-27T02:53:46.119Z,9.50
2019-04-27T02:56:15.410Z,9.40
2019-04-27T02:58:44.800Z,9.40
2019-04-27T03:01:14.415Z,9.50
2019-04-27T03:03:43.762Z,9.50
2019-04-27T03:06:13.295Z,9.50
2019-04-27T03:08:42.883Z,9.40
2019-04-27T03:11:12.537Z,9.50
2019-04-27T03:13:59.838Z,9.50
2019-04-27T03:16:54.557Z,9.50
2019-04-27T03:19:32.765Z,9.40
2019-04-27T03:22:23.963Z,9.50
2019-04-27T03:25:20.242Z,9.50
2019-04-27T03:27:50.505Z,9.50
2019-04-27T03:30:22.665Z,9.60
2019-04-27T03:32:56.096Z,9.60
2019-04-27T03:35:22.924Z,9.60
2019-04-27T03:37:52.380Z,9.60
2019-04-27T03:40:21.615Z,9.60
2019-04-27T03:42:52.368Z,9.60
2019-04-27T03:45:21.856Z,9.70
2019-04-27T03:47:50.924Z,9.70
2019-04-27T03:50:25.459Z,9.60
2019-04-27T03:53:31.902Z,9.50
2019-04-27T03:56:16.531Z,9.60
2019-04-27T03:58:49.856Z,9.50
2019-04-27T04:01:20.323Z,9.50
2019-04-27T04:03:50.263Z,9.60
2019-04-27T04:06:19.752Z,9.50
2019-04-27T04:08:50.208Z,9.50
2019-04-27T04:11:30.376Z,9.50
2019-04-27T04:14:03.828Z,9.50
2019-04-27T04:16:44.324Z,9.50
2019-04-27T04:19:14.372Z,9.50
2019-04-27T04:21:43.747Z,9.60
2019-04-27T04:24:12.910Z,9.70
2019-04-27T04:26:42.243Z,9.60
2019-04-27T04:29:11.415Z,9.60
2019-04-27T04:31:40.912Z,9.70
2019-04-27T04:34:12.196Z,9.80
2019-04-27T04:36:42.707Z,9.90
2019-04-27T04:39:12.774Z,9.90
2019-04-27T04:41:59.941Z,9.90
2019-04-27T04:44:50.262Z,9.90
2019-04-27T04:47:32.849Z,9.90
2019-04-27T04:50:10.729Z,9.90
2019-04-27T04:52:33.147Z,9.90
2019-04-27T04:55:02.713Z,10.00
2019-04-27T04:57:32.209Z,10.00
2019-04-27T05:00:01.528Z,10.10
2019-04-27T05:02:31.220Z,10.10
2019-04-27T05:05:00.617Z,10.10
2019-04-27T05:07:29.886Z,10.10
2019-04-27T05:09:59.156Z,10.20
2019-04-27T05:12:28.814Z,10.20
2019-04-27T05:14:59.094Z,10.30
2019-04-27T05:17:29.681Z,10.50
2019-04-27T05:20:01.401Z,10.50
2019-04-27T05:22:30.614Z,10.50
2019-04-27T05:25:02.930Z,10.60
2019-04-27T05:27:32.426Z,10.60
2019-04-27T05:30:01.800Z,10.50
2019-04-27T05:32:30.851Z,10.60
2019-04-27T05:35:00.024Z,10.60
2019-04-27T05:37:31.607Z,10.70
2019-04-27T05:39:59.893Z,10.70
2019-04-27T05:42:28.942Z,10.80
2019-04-27T05:45:10.466Z,10.70
2019-04-27T05:47:56.667Z,10.80
2019-04-27T05:50:35.606Z,10.90
2019-04-27T05:52:56.539Z,10.90
2019-04-27T05:55:25.459Z,10.90
2019-04-27T05:57:54.510Z,10.90
2019-04-27T06:00:23.975Z,10.90
2019-04-27T06:02:52.964Z,11.00
2019-04-27T06:05:22.895Z,11.10
2019-04-27T06:07:52.111Z,11.00
2019-04-27T06:10:21.176Z,11.00
2019-04-27T06:12:50.422Z,11.10
2019-04-27T06:15:19.901Z,11.20
2019-04-27T06:17:49.129Z,11.10
2019-04-27T06:20:18.874Z,11.10
2019-04-27T06:22:48.880Z,11.10
2019-04-27T06:25:21.164Z,11.20
2019-04-27T06:27:49.583Z,11.10
2019-04-27T06:30:19.386Z,11.20
2019-04-27T06:32:49.425Z,11.30
2019-04-27T06:35:19.447Z,11.30
2019-04-27T06:37:49.301Z,11.40
2019-04-27T06:40:18.843Z,11.30
2019-04-27T06:42:48.617Z,11.30
2019-04-27T06:45:19.662Z,11.30
2019-04-27T06:47:51.013Z,11.30
2019-04-27T06:50:19.942Z,11.30
2019-04-27T06:52:49.158Z,11.20
2019-04-27T06:55:18.880Z,11.30
2019-04-27T06:57:49.048Z,11.20
2019-04-27T07:00:18.996Z,11.10
2019-04-27T07:02:49.294Z,11.10
2019-04-27T07:05:20.237Z,11.10
2019-04-27T07:07:49.374Z,11.10
2019-04-27T07:10:18.674Z,11.00
2019-04-27T07:12:49.051Z,11.00
2019-04-27T07:15:20.168Z,11.00
2019-04-27T07:17:48.949Z,10.90
2019-04-27T07:20:18.885Z,10.80
2019-04-27T07:22:49.649Z,10.90
2019-04-27T07:25:19.116Z,10.90
2019-04-27T07:27:49.332Z,10.80
2019-04-27T07:30:19.090Z,10.80
2019-04-27T07:32:48.821Z,10.60
2019-04-27T07:35:19.522Z,10.60
2019-04-27T07:37:48.889Z,10.60
2019-04-27T07:40:18.767Z,10.70
2019-04-27T07:42:50.983Z,10.70
2019-04-27T07:45:25.693Z,10.70
2019-04-27T07:47:55.135Z,10.70
2019-04-27T07:50:24.194Z,10.70
2019-04-27T07:52:53.268Z,10.80
2019-04-27T07:55:22.333Z,10.90
2019-04-27T07:57:51.352Z,10.90
2019-04-27T08:00:20.591Z,10.80
2019-04-27T08:02:49.585Z,10.90
2019-04-27T08:05:19.231Z,10.90
2019-04-27T08:07:49.164Z,11.00
2019-04-27T08:10:19.341Z,10.70
2019-04-27T08:12:49.833Z,10.80
2019-04-27T08:15:19.078Z,10.80
2019-04-27T08:17:49.284Z,10.90
2019-04-27T08:20:19.214Z,11.00
2019-04-27T08:22:49.761Z,11.00
2019-04-27T08:25:19.111Z,11.20
2019-04-27T08:28:02.991Z,11.20
2019-04-27T08:30:54.282Z,11.20
2019-04-27T08:33:23.511Z,11.20
2019-04-27T08:35:52.495Z,11.20
2019-04-27T08:38:21.588Z,11.20
2019-04-27T08:40:50.475Z,11.20
2019-04-27T08:43:19.766Z,11.20
2019-04-27T08:45:48.902Z,11.00
2019-04-27T08:48:25.157Z,11.20
2019-04-27T08:50:48.938Z,11.20
2019-04-27T08:53:18.611Z,11.10
2019-04-27T08:55:49.622Z,10.90
2019-04-27T08:58:19.696Z,11.00
2019-04-27T09:00:49.446Z,11.00
2019-04-27T09:03:19.321Z,11.00
2019-04-27T09:05:49.003Z,11.00
2019-04-27T09:08:43.575Z,11.10
2019-04-27T09:11:28.957Z,10.70
2019-04-27T09:14:22.075Z,10.60
2019-04-27T09:17:02.264Z,10.70
2019-04-27T09:19:59.154Z,11.00
2019-04-27T09:22:28.915Z,11.00
2019-04-27T09:24:59.479Z,10.90
2019-04-27T09:27:29.023Z,10.90
2019-04-27T09:29:59.041Z,10.90
2019-04-27T09:32:28.949Z,11.00
2019-04-27T09:34:58.353Z,10.90
2019-04-27T09:37:27.565Z,10.90
2019-04-27T09:39:56.729Z,10.90
2019-04-27T09:42:26.833Z,10.70
2019-04-27T09:44:56.276Z,10.80
2019-04-27T09:47:26.674Z,10.90
2019-04-27T09:49:56.523Z,10.90
2019-04-27T09:52:28.235Z,11.00
2019-04-27T09:54:56.964Z,11.10
2019-04-27T09:57:26.348Z,11.00
2019-04-27T09:59:56.482Z,11.20
2019-04-27T10:02:26.956Z,11.20
2019-04-27T10:04:56.598Z,11.20
2019-04-27T10:07:26.812Z,11.20
2019-04-27T10:09:56.072Z,11.30
2019-04-27T10:12:26.091Z,11.30
2019-04-27T10:14:55.967Z,11.20
2019-04-27T10:17:25.329Z,11.40
2019-04-27T10:19:54.503Z,11.40
2019-04-27T10:22:39.360Z,11.10
2019-04-27T10:24:54.733Z,11.00
2019-04-27T10:27:25.818Z,11.00
2019-04-27T10:29:56.687Z,10.90
2019-04-27T10:32:26.069Z,10.80
2019-04-27T10:34:55.454Z,10.70
2019-04-27T10:37:24.773Z,10.70
2019-04-27T10:39:55.950Z,10.60
2019-04-27T10:42:27.168Z,10.70
2019-04-27T10:44:56.627Z,10.80
2019-04-27T10:47:26.087Z,10.90
2019-04-27T10:49:56.661Z,11.00
2019-04-27T10:52:26.335Z,11.10
2019-04-27T10:54:57.289Z,11.00
2019-04-27T10:57:26.672Z,11.10
2019-04-27T10:59:56.338Z,11.10
2019-04-27T11:02:25.723Z,11.00
2019-04-27T11:05:03.641Z,11.10
2019-04-27T11:07:36.304Z,11.00
2019-04-27T11:10:07.838Z,11.00
2019-04-27T11:12:37.034Z,10.80
2019-04-27T11:15:07.886Z,10.80
2019-04-27T11:17:37.169Z,10.60
2019-04-27T11:20:07.146Z,10.70
2019-04-27T11:22:36.479Z,10.60
2019-04-27T11:25:06.629Z,10.50
2019-04-27T11:27:35.982Z,10.50
2019-04-27T11:30:06.711Z,10.40
2019-04-27T11:32:35.842Z,10.60
2019-04-27T11:35:18.992Z,10.60
2019-04-27T11:37:48.623Z,10.50
2019-04-27T11:40:19.715Z,10.50
2019-04-27T11:42:48.828Z,10.60
2019-04-27T11:45:19.195Z,10.80
2019-04-27T11:47:48.565Z,10.90
2019-04-27T11:50:17.901Z,11.00
2019-04-27T11:52:46.869Z,11.10
2019-04-27T11:55:16.501Z,11.20
2019-04-27T11:57:47.006Z,11.30
2019-04-27T12:00:18.544Z,11.20
2019-04-27T12:02:47.632Z,11.40
2019-04-27T12:05:16.765Z,11.40
2019-04-27T12:07:47.728Z,11.30
2019-04-27T12:10:17.523Z,11.30
2019-04-27T12:12:46.522Z,11.20
2019-04-27T12:15:16.406Z,11.30
2019-04-27T12:17:46.110Z,11.30
2019-04-27T12:20:17.931Z,11.10
2019-04-27T12:22:46.898Z,10.70
2019-04-27T12:25:16.188Z,10.60
2019-04-27T12:28:02.914Z,10.70
2019-04-27T12:30:57.030Z,10.90
2019-04-27T12:33:27.649Z,11.00
2019-04-27T12:35:57.075Z,10.80
2019-04-27T12:38:26.386Z,11.00
2019-04-27T12:40:57.041Z,11.40
2019-04-27T12:43:26.079Z,11.80
2019-04-27T12:45:55.948Z,11.60
2019-04-27T12:48:25.210Z,12.00
2019-04-27T12:50:56.144Z,12.00
2019-04-27T12:53:30.513Z,12.20
2019-04-27T12:56:18.732Z,12.60
2019-04-27T12:59:00.877Z,12.70
2019-04-27T13:01:30.244Z,12.70
2019-04-27T13:03:59.390Z,12.80
2019-04-27T13:06:28.496Z,12.80
2019-04-27T13:08:57.533Z,13.40
2019-04-27T13:11:26.793Z,13.60
2019-04-27T13:13:57.639Z,13.70
2019-04-27T13:16:28.930Z,13.60
2019-04-27T13:18:57.641Z,13.40
2019-04-27T13:21:27.127Z,13.40
2019-04-27T13:24:04.158Z,13.40
2019-04-27T13:26:27.084Z,13.50
2019-04-27T13:28:56.047Z,13.30
2019-04-27T13:31:25.783Z,13.40
2019-04-27T13:33:55.737Z,13.40
2019-04-27T13:36:26.489Z,13.30
2019-04-27T13:38:56.034Z,12.90
2019-04-27T13:41:30.245Z,12.60
2019-04-27T13:43:57.536Z,12.60
2019-04-27T13:46:46.042Z,12.70
2019-04-27T13:49:39.950Z,12.80
2019-04-27T13:52:17.444Z,12.70
2019-04-27T13:54:46.537Z,12.90
2019-04-27T13:57:16.410Z,12.90
2019-04-27T13:59:46.480Z,13.10
2019-04-27T14:02:16.138Z,12.90
2019-04-27T14:04:45.369Z,13.00
2019-04-27T14:07:14.341Z,13.00
2019-04-27T14:09:43.298Z,12.80
2019-04-27T14:12:21.427Z,12.80
2019-04-27T14:14:50.988Z,12.70
2019-04-27T14:17:20.014Z,12.60
2019-04-27T14:19:49.265Z,12.50
2019-04-27T14:22:18.362Z,12.70
2019-04-27T14:24:48.761Z,13.10
2019-04-27T14:27:19.081Z,13.30
2019-04-27T14:29:48.951Z,13.40
2019-04-27T14:32:18.757Z,13.50
2019-04-27T14:34:50.099Z,13.80
2019-04-27T14:37:18.668Z,13.50
2019-04-27T14:39:48.275Z,13.40
2019-04-27T14:42:19.002Z,13.10
2019-04-27T14:44:48.938Z,12.90
2019-04-27T14:47:18.855Z,13.00
2019-04-27T14:49:49.058Z,12.80
2019-04-27T14:52:18.857Z,12.60
2019-04-27T14:54:50.560Z,12.50
2019-04-27T14:57:20.505Z,12.20
2019-04-27T14:59:49.952Z,12.30
2019-04-27T15:02:19.009Z,12.20
2019-04-27T15:04:48.338Z,12.40
2019-04-27T15:07:17.409Z,12.40
2019-04-27T15:09:49.723Z,12.30
2019-04-27T15:12:17.198Z,12.30
2019-04-27T15:14:46.287Z,12.30
2019-04-27T15:17:17.597Z,12.20
2019-04-27T15:19:52.737Z,12.30
2019-04-27T15:22:26.964Z,12.30
2019-04-27T15:25:09.382Z,12.00
2019-04-27T15:27:40.449Z,11.90
2019-04-27T15:30:11.924Z,11.90
2019-04-27T15:33:00.422Z,11.80
2019-04-27T15:35:40.671Z,11.70
2019-04-27T15:38:14.202Z,11.30
2019-04-27T15:41:08.806Z,11.30
2019-04-27T15:43:39.392Z,11.00
2019-04-27T15:46:08.536Z,10.70
2019-04-27T15:48:38.498Z,10.60
2019-04-27T15:51:16.434Z,10.70
2019-04-27T15:53:41.275Z,10.80
2019-04-27T15:56:09.431Z,10.90
2019-04-27T15:58:38.760Z,10.70
2019-04-27T16:01:11.309Z,10.70
2019-04-27T16:03:39.090Z,11.20
2019-04-27T16:06:11.689Z,11.30
2019-04-27T16:08:45.086Z,11.40
2019-04-27T16:11:16.304Z,11.50
2019-04-27T16:13:40.353Z,11.50
2019-04-27T16:16:09.408Z,11.50
2019-04-27T16:18:38.927Z,11.60
2019-04-27T16:21:10.578Z,11.60
2019-04-27T16:23:42.810Z,11.50
2019-04-27T16:26:13.729Z,11.20
2019-04-27T16:28:43.126Z,11.10
2019-04-27T16:31:11.283Z,11.10
2019-04-27T16:33:40.288Z,11.00
2019-04-27T16:36:09.742Z,11.00
2019-04-27T16:38:56.287Z,11.20
2019-04-27T16:41:25.366Z,11.10
2019-04-27T16:43:54.465Z,11.20
2019-04-27T16:46:23.762Z,11.20
2019-04-27T16:48:52.836Z,11.10
2019-04-27T16:51:21.997Z,10.90
2019-04-27T16:53:51.000Z,11.00
2019-04-27T16:56:20.862Z,11.10
2019-04-27T16:58:56.478Z,11.10
2019-04-27T17:01:30.302Z,11.00
2019-04-27T17:03:59.552Z,11.20
2019-04-27T17:06:29.597Z,11.20
2019-04-27T17:09:05.457Z,11.30
2019-04-27T17:11:29.916Z,11.30
2019-04-27T17:14:20.561Z,11.30
2019-04-27T17:17:11.954Z,11.40
2019-04-27T17:19:44.011Z,11.30
2019-04-27T17:22:14.582Z,11.70
2019-04-27T17:24:48.961Z,11.80
2019-04-27T17:27:21.209Z,11.80
2019-04-27T17:29:49.957Z,11.60
2019-04-27T17:32:43.083Z,11.50
2019-04-27T17:35:14.874Z,11.80
2019-04-27T17:37:42.787Z,11.90
2019-04-27T17:40:15.157Z,11.70
2019-04-27T17:42:43.035Z,11.50
2019-04-27T17:45:12.049Z,11.70
2019-04-27T17:47:41.085Z,11.60
2019-04-27T17:50:10.689Z,11.70
2019-04-27T17:52:39.776Z,11.60
2019-04-27T17:55:09.148Z,11.60
2019-04-27T17:57:39.123Z,11.50
2019-04-27T18:00:09.975Z,11.20
2019-04-27T18:02:42.370Z,11.20
2019-04-27T18:05:13.850Z,11.30
2019-04-27T18:07:44.293Z,11.00
2019-04-27T18:10:22.810Z,10.30
2019-04-27T18:12:48.667Z,9.80
2019-04-27T18:15:16.495Z,9.50
2019-04-27T18:17:51.866Z,9.40
2019-04-27T18:20:21.989Z,9.20
2019-04-27T18:22:57.954Z,9.50
2019-04-27T18:25:28.617Z,9.70
2019-04-27T18:28:08.041Z,9.70
2019-04-27T18:31:05.526Z,9.80
2019-04-27T18:33:37.066Z,9.80
2019-04-27T18:36:11.503Z,9.90
2019-04-27T18:38:39.068Z,9.80
2019-04-27T18:41:11.616Z,9.70
2019-04-27T18:43:45.911Z,9.70
2019-04-27T18:46:10.671Z,9.80
2019-04-27T18:49:02.061Z,9.90
2019-04-27T18:51:40.812Z,9.80
2019-04-27T18:54:09.991Z,9.80
2019-04-27T18:56:41.637Z,9.80
2019-04-27T18:59:10.058Z,9.70
2019-04-27T19:01:39.216Z,9.60
2019-04-27T19:04:08.755Z,9.50
2019-04-27T19:06:39.123Z,9.60
2019-04-27T19:09:09.215Z,9.60
2019-04-27T19:11:38.558Z,9.60
2019-04-27T19:14:08.339Z,9.60
2019-04-27T19:16:38.400Z,9.70
2019-04-27T19:19:08.701Z,9.90
2019-04-27T19:21:39.268Z,9.90
2019-04-27T19:24:09.026Z,9.60
2019-04-27T19:26:58.632Z,9.50
2019-04-27T19:29:30.860Z,9.50
2019-04-27T19:32:01.874Z,9.70
2019-04-27T19:34:31.386Z,9.70
2019-04-27T19:37:00.401Z,9.60
2019-04-27T19:39:29.496Z,9.60
2019-04-27T19:42:03.405Z,9.50
2019-04-27T19:44:29.423Z,9.50
2019-04-27T19:47:00.145Z,9.50
2019-04-27T19:49:31.732Z,9.50
2019-04-27T19:52:00.514Z,9.50
2019-04-27T19:54:30.223Z,9.50
2019-04-27T19:56:59.790Z,9.50
2019-04-27T19:59:38.151Z,9.50
2019-04-27T20:02:11.991Z,9.50
2019-04-27T20:04:43.090Z,9.40
2019-04-27T20:07:12.284Z,9.10
2019-04-27T20:09:50.161Z,8.90
2019-04-27T20:12:21.134Z,9.00
2019-04-27T20:14:56.343Z,9.20
2019-04-27T20:17:31.434Z,9.20
2019-04-27T20:20:01.111Z,9.10
2019-04-27T20:22:30.489Z,9.20
2019-04-27T20:25:01.543Z,9.10
2019-04-27T20:27:34.839Z,9.30
2019-04-27T20:30:03.177Z,9.10
2019-04-27T20:32:32.123Z,9.00
2019-04-27T20:35:01.575Z,8.80
2019-04-27T20:37:31.368Z,8.70
2019-04-27T20:40:01.654Z,8.60
2019-04-27T20:42:31.609Z,8.60
2019-04-27T20:45:02.000Z,8.60
2019-04-27T20:47:32.039Z,8.70
2019-04-27T20:50:01.128Z,8.60
2019-04-27T20:52:49.524Z,8.60
2019-04-27T20:55:18.534Z,8.70
2019-04-27T20:57:58.675Z,8.60
2019-04-27T21:00:21.853Z,8.70
2019-04-27T21:03:11.819Z,8.90
2019-04-27T21:06:03.346Z,8.80
2019-04-27T21:08:33.996Z,9.00
2019-04-27T21:11:03.362Z,8.90
2019-04-27T21:13:32.407Z,9.00
2019-04-27T21:16:02.236Z,8.90
2019-04-27T21:18:31.856Z,9.00
2019-04-27T21:21:01.399Z,8.90
2019-04-27T21:23:31.212Z,8.90
2019-04-27T21:26:02.118Z,8.90
2019-04-27T21:28:32.066Z,9.10
2019-04-27T21:31:01.042Z,9.20
2019-04-27T21:33:31.695Z,9.20
2019-04-27T21:36:01.458Z,9.30
2019-04-27T21:38:30.554Z,9.30
2019-04-27T21:40:59.566Z,9.30
2019-04-27T21:43:29.218Z,9.40
2019-04-27T21:45:58.372Z,9.40
2019-04-27T21:48:27.698Z,9.40
2019-04-27T21:50:56.774Z,9.10
2019-04-27T21:53:32.410Z,9.20
2019-04-27T21:56:03.160Z,9.30
2019-04-27T21:58:33.302Z,9.40
2019-04-27T22:01:17.110Z,9.60
2019-04-27T22:03:46.369Z,9.60
2019-04-27T22:06:15.857Z,9.50
2019-04-27T22:08:45.190Z,9.30
2019-04-27T22:11:14.542Z,9.20
2019-04-27T22:13:44.005Z,9.10
2019-04-27T22:16:13.514Z,9.10
2019-04-27T22:18:42.909Z,9.10
2019-04-27T22:21:12.419Z,9.30
2019-04-27T22:23:53.346Z,9.30
2019-04-27T22:26:22.724Z,9.20
2019-04-27T22:28:52.165Z,9.10
2019-04-27T22:31:21.346Z,9.00
2019-04-27T22:33:53.855Z,9.00
2019-04-27T22:36:21.944Z,8.90
2019-04-27T22:38:51.581Z,8.90
2019-04-27T22:41:41.745Z,8.80
2019-04-27T22:44:35.876Z,8.60
2019-04-27T22:47:05.041Z,8.80
2019-04-27T22:49:34.071Z,8.90
2019-04-27T22:52:03.217Z,8.70
2019-04-27T22:54:32.224Z,8.70
2019-04-27T22:57:05.222Z,8.70
2019-04-27T22:59:41.418Z,8.80
2019-04-27T23:02:21.700Z,8.80
2019-04-27T23:04:57.015Z,8.80
2019-04-27T23:07:26.698Z,8.90
2019-04-27T23:09:55.828Z,8.90
2019-04-27T23:12:24.807Z,8.90
2019-04-27T23:14:53.881Z,8.80
2019-04-27T23:17:37.751Z,8.70
2019-04-27T23:20:07.772Z,8.70
2019-04-27T23:22:37.007Z,8.80
2019-04-27T23:25:08.216Z,8.80
2019-04-27T23:27:37.359Z,8.80
2019-04-27T23:30:06.861Z,8.70
2019-04-27T23:32:41.279Z,8.70
2019-04-27T23:35:10.545Z,8.70
2019-04-27T23:37:39.833Z,8.80
2019-04-27T23:40:11.010Z,8.80
2019-04-27T23:42:41.637Z,8.80
2019-04-27T23:45:11.700Z,8.70
2019-04-27T23:47:40.746Z,8.70
2019-04-27T23:50:10.912Z,8.70
2019-04-27T23:52:58.058Z,8.70
2019-04-27T23:55:30.948Z,8.70
2019-04-27T23:58:00.310Z,8.70
